Needmore, Kentucky
Current Conditions -  °F | °C
As of 6:35 PM on Monday 22 Dec 2014 (Local Time) from KFGX Reporting Station
Broken Clouds Broken Clouds  
Wind Chill: 43°   Ceiling: 11000
Heat Index: 46°   Visibility: 10mi
Dew Point: 38°   Wind: 6mph
Humidity: 73%   Direction: 110°ESE
Pressure: 29.83"   Gusts: NA
Location:  38.4934°N, 83.7754°W
Report Text: KFGX 222335Z AUTO 11005KT 10SM SCT090 BKN110 08/03 A2983 RMK AO2 T00790033
Loading
Personal Weather Stations






























Interactive Weather Map New forecast layout! Learn more

10-Day Weather Forecast

Advertisements
Track Severe Weather on mobile